sensor_id;sensor_type;location;lat;lon;timestamp;pressure;altitude;pressure_sealevel;temperature;humidity
56064;BME280;41940;52.880;13.012;2022-11-15T09:31:15;100882.50;;;4.12;100.00
56064;BME280;41940;52.880;13.012;2022-11-15T09:33:43;100884.91;;;4.15;100.00
56064;BME280;41940;52.880;13.012;2022-11-15T09:36:10;100888.81;;;4.34;100.00
56064;BME280;41940;52.880;13.012;2022-11-15T09:38:36;100892.31;;;4.34;100.00
56064;BME280;41940;52.880;13.012;2022-11-15T09:41:38;100888.59;;;4.48;100.00
56064;BME280;41940;52.880;13.012;2022-11-15T09:47:01;100881.97;;;4.54;100.00
56064;BME280;41940;52.880;13.012;2022-11-15T09:49:29;100877.25;;;4.57;100.00
56064;BME280;41940;52.880;13.012;2022-11-15T09:51:56;100879.97;;;4.69;100.00
56064;BME280;41940;52.880;13.012;2022-11-15T09:54:30;100874.75;;;4.90;100.00
56064;BME280;41940;52.880;13.012;2022-11-15T09:57:12;100870.91;;;4.83;100.00
56064;BME280;41940;52.880;13.012;2022-11-15T10:00:06;100869.56;;;4.88;100.00
56064;BME280;41940;52.880;13.012;2022-11-15T10:05:20;100861.22;;;5.16;100.00
56064;BME280;41940;52.880;13.012;2022-11-15T10:11:00;100855.00;;;5.38;100.00
56064;BME280;41940;52.880;13.012;2022-11-15T10:13:30;100865.81;;;5.25;100.00
56064;BME280;41940;52.880;13.012;2022-11-15T10:16:09;100859.59;;;5.47;100.00
56064;BME280;41940;52.880;13.012;2022-11-15T10:18:52;100845.41;;;5.58;100.00
56064;BME280;41940;52.880;13.012;2022-11-15T10:22:16;100848.09;;;5.47;100.00
56064;BME280;41940;52.880;13.012;2022-11-15T10:24:19;100844.91;;;5.64;100.00
56064;BME280;41940;52.880;13.012;2022-11-15T10:26:48;100842.13;;;5.66;100.00
56064;BME280;41940;52.880;13.012;2022-11-15T10:29:19;100833.06;;;6.01;100.00
56064;BME280;41940;52.880;13.012;2022-11-15T10:31:45;100828.84;;;5.87;100.00
56064;BME280;41940;52.880;13.012;2022-11-15T10:34:14;100819.19;;;5.86;100.00
56064;BME280;41940;52.880;13.012;2022-11-15T10:37:00;100816.25;;;6.22;100.00
56064;BME280;41940;52.880;13.012;2022-11-15T10:39:27;100819.38;;;6.27;100.00
56064;BME280;41940;52.880;13.012;2022-11-15T10:41:54;100819.28;;;6.17;100.00
56064;BME280;41940;52.880;13.012;2022-11-15T10:44:30;100820.28;;;6.16;100.00
56064;BME280;41940;52.880;13.012;2022-11-15T10:49:26;100819.41;;;6.68;100.00
56064;BME280;41940;52.880;13.012;2022-11-15T10:51:59;100812.97;;;6.70;100.00
56064;BME280;41940;52.880;13.012;2022-11-15T10:54:34;100810.59;;;6.77;100.00
56064;BME280;41940;52.880;13.012;2022-11-15T10:57:07;100805.88;;;6.81;100.00
56064;BME280;41940;52.880;13.012;2022-11-15T10:59:37;100797.53;;;7.15;100.00
56064;BME280;41940;52.880;13.012;2022-11-15T11:02:45;100798.78;;;7.11;100.00
56064;BME280;41940;52.880;13.012;2022-11-15T11:05:38;100804.91;;;6.92;100.00
56064;BME280;41940;52.880;13.012;2022-11-15T11:08:20;100794.97;;;6.94;100.00
56064;BME280;41940;52.880;13.012;2022-11-15T11:10:57;100787.97;;;7.02;100.00
56064;BME280;41940;52.880;13.012;2022-11-15T11:13:25;100784.50;;;7.21;100.00
56064;BME280;41940;52.880;13.012;2022-11-15T11:19:15;100775.56;;;7.32;100.00
56064;BME280;41940;52.880;13.012;2022-11-15T11:27:32;100764.00;;;7.91;100.00
56064;BME280;41940;52.880;13.012;2022-11-15T11:30:10;100760.22;;;7.83;100.00
56064;BME280;41940;52.880;13.012;2022-11-15T11:38:30;100751.22;;;7.85;100.00
56064;BME280;41940;52.880;13.012;2022-11-15T11:50:10;100737.53;;;8.07;100.00
56064;BME280;41940;52.880;13.012;2022-11-15T11:52:31;100742.31;;;8.13;100.00
56064;BME280;41940;52.880;13.012;2022-11-15T11:57:44;100740.16;;;8.27;100.00
56064;BME280;41940;52.880;13.012;2022-11-15T12:00:22;100744.16;;;8.51;100.00
56064;BME280;41940;52.880;13.012;2022-11-15T12:08:25;100737.78;;;8.24;100.00
56064;BME280;41940;52.880;13.012;2022-11-15T12:11:01;100742.19;;;8.43;100.00
56064;BME280;41940;52.880;13.012;2022-11-15T12:13:30;100740.66;;;8.50;100.00
56064;BME280;41940;52.880;13.012;2022-11-15T12:16:05;100748.13;;;8.74;100.00
56064;BME280;41940;52.880;13.012;2022-11-15T12:18:31;100734.94;;;8.73;100.00
56064;BME280;41940;52.880;13.012;2022-11-15T12:21:05;100722.06;;;8.58;100.00
56064;BME280;41940;52.880;13.012;2022-11-15T12:23:39;100722.91;;;8.59;100.00
56064;BME280;41940;52.880;13.012;2022-11-15T12:26:15;100730.41;;;8.73;100.00
56064;BME280;41940;52.880;13.012;2022-11-15T12:28:47;100721.56;;;8.73;100.00
56064;BME280;41940;52.880;13.012;2022-11-15T12:31:19;100724.63;;;8.78;100.00
56064;BME280;41940;52.880;13.012;2022-11-15T12:33:47;100723.78;;;8.78;100.00
56064;BME280;41940;52.880;13.012;2022-11-15T12:39:00;100724.44;;;8.62;100.00
56064;BME280;41940;52.880;13.012;2022-11-15T12:41:36;100715.63;;;8.79;100.00
56064;BME280;41940;52.880;13.012;2022-11-15T12:44:03;100709.84;;;8.56;100.00
56064;BME280;41940;52.880;13.012;2022-11-15T12:49:00;100703.97;;;8.42;100.00
56064;BME280;41940;52.880;13.012;2022-11-15T13:02:37;100708.03;;;8.74;100.00
56064;BME280;41940;52.880;13.012;2022-11-15T13:17:46;100700.34;;;8.71;100.00
56064;BME280;41940;52.880;13.012;2022-11-15T13:23:00;100694.97;;;8.43;100.00
56064;BME280;41940;52.880;13.012;2022-11-15T13:28:37;100699.91;;;8.48;100.00
56064;BME280;41940;52.880;13.012;2022-11-15T13:33:43;100691.91;;;8.38;100.00
56064;BME280;41940;52.880;13.012;2022-11-15T13:36:19;100693.19;;;8.34;100.00
56064;BME280;41940;52.880;13.012;2022-11-15T13:39:04;100690.13;;;8.29;100.00
56064;BME280;41940;52.880;13.012;2022-11-15T13:41:32;100684.53;;;8.22;100.00
56064;BME280;41940;52.880;13.012;2022-11-15T13:43:59;100685.28;;;8.15;100.00
56064;BME280;41940;52.880;13.012;2022-11-15T13:46:33;100691.44;;;8.15;100.00
56064;BME280;41940;52.880;13.012;2022-11-15T13:49:03;100684.72;;;8.11;100.00
56064;BME280;41940;52.880;13.012;2022-11-15T13:51:39;100682.06;;;8.11;100.00
56064;BME280;41940;52.880;13.012;2022-11-15T13:54:25;100679.97;;;8.05;100.00
56064;BME280;41940;52.880;13.012;2022-11-15T13:57:02;100680.69;;;7.97;100.00
56064;BME280;41940;52.880;13.012;2022-11-15T13:59:31;100684.66;;;7.93;100.00
56064;BME280;41940;52.880;13.012;2022-11-15T14:02:14;100680.84;;;7.95;100.00
56064;BME280;41940;52.880;13.012;2022-11-15T14:04:53;100678.34;;;7.84;100.00
56064;BME280;41940;52.880;13.012;2022-11-15T14:07:22;100681.16;;;7.82;100.00
56064;BME280;41940;52.880;13.012;2022-11-15T14:09:48;100682.72;;;7.75;100.00
56064;BME280;41940;52.880;13.012;2022-11-15T14:12:33;100680.06;;;7.75;100.00
56064;BME280;41940;52.880;13.012;2022-11-15T14:15:17;100679.47;;;7.81;100.00
56064;BME280;41940;52.880;13.012;2022-11-15T14:17:43;100681.47;;;7.70;100.00
56064;BME280;41940;52.880;13.012;2022-11-15T14:20:32;100690.72;;;7.75;100.00
56064;BME280;41940;52.880;13.012;2022-11-15T14:23:00;100687.53;;;7.62;100.00
56064;BME280;41940;52.880;13.012;2022-11-15T14:25:28;100692.69;;;7.63;100.00
56064;BME280;41940;52.880;13.012;2022-11-15T14:28:16;100683.34;;;7.49;100.00
56064;BME280;41940;52.880;13.012;2022-11-15T14:30:56;100680.50;;;7.51;100.00
56064;BME280;41940;52.880;13.012;2022-11-15T14:33:25;100671.97;;;7.38;100.00
56064;BME280;41940;52.880;13.012;2022-11-15T14:35:53;100671.69;;;7.31;100.00
56064;BME280;41940;52.880;13.012;2022-11-15T14:38:21;100667.91;;;7.33;100.00
56064;BME280;41940;52.880;13.012;2022-11-15T14:40:47;100674.63;;;7.38;100.00
56064;BME280;41940;52.880;13.012;2022-11-15T14:43:13;100666.09;;;7.34;100.00
56064;BME280;41940;52.880;13.012;2022-11-15T14:45:39;100669.88;;;7.21;100.00
56064;BME280;41940;52.880;13.012;2022-11-15T14:48:05;100658.38;;;7.21;100.00
56064;BME280;41940;52.880;13.012;2022-11-15T14:50:34;100662.72;;;7.22;100.00
56064;BME280;41940;52.880;13.012;2022-11-15T14:53:00;100662.31;;;7.17;100.00
